createdAt,value
2022-10-18T00:02:20.185Z,93.50
2022-10-18T00:04:47.043Z,92.58
2022-10-18T00:07:13.602Z,92.95
2022-10-18T00:09:39.933Z,93.13
2022-10-18T00:12:06.335Z,92.02
2022-10-18T00:14:32.880Z,92.01
2022-10-18T00:16:59.341Z,92.37
2022-10-18T00:19:28.533Z,92.56
2022-10-18T00:21:55.831Z,94.05
2022-10-18T00:24:22.209Z,94.80
2022-10-18T00:26:48.613Z,94.94
2022-10-18T00:29:16.258Z,95.30
2022-10-18T00:31:46.820Z,95.60
2022-10-18T00:34:15.196Z,94.74
2022-10-18T00:36:42.843Z,95.05
2022-10-18T00:39:15.479Z,95.68
2022-10-18T00:41:42.136Z,96.24
2022-10-18T00:44:11.587Z,97.37
2022-10-18T00:46:41.113Z,97.36
2022-10-18T00:49:16.087Z,97.93
2022-10-18T00:51:49.784Z,99.32
2022-10-18T00:54:18.024Z,98.89
2022-10-18T00:56:45.176Z,99.05
2022-10-18T00:59:14.868Z,99.95
2022-10-18T01:01:41.387Z,99.01
2022-10-18T01:04:08.477Z,100.00
2022-10-18T01:09:47.318Z,100.00
2022-10-18T01:12:44.683Z,100.00
2022-10-18T01:15:26.380Z,100.00
2022-10-18T01:18:05.752Z,100.00
2022-10-18T01:21:14.488Z,100.00
2022-10-18T01:23:40.811Z,100.00
2022-10-18T01:26:36.188Z,100.00
2022-10-18T01:29:33.302Z,100.00
2022-10-18T01:32:04.216Z,100.00
2022-10-18T01:34:35.047Z,100.00
2022-10-18T01:37:04.845Z,100.00
2022-10-18T01:39:38.220Z,100.00
2022-10-18T01:42:08.787Z,100.00
2022-10-18T01:44:38.098Z,100.00
2022-10-18T01:47:07.940Z,100.00
2022-10-18T01:49:34.501Z,100.00
2022-10-18T01:52:00.877Z,100.00
2022-10-18T01:54:37.241Z,100.00
2022-10-18T01:57:08.740Z,100.00
2022-10-18T01:59:47.458Z,100.00
2022-10-18T02:02:35.272Z,100.00
2022-10-18T02:05:31.632Z,100.00
2022-10-18T02:08:22.919Z,100.00
2022-10-18T02:11:07.734Z,100.00
2022-10-18T02:13:41.753Z,100.00
2022-10-18T02:16:16.582Z,100.00
2022-10-18T02:18:51.841Z,100.00
2022-10-18T02:21:21.083Z,100.00
2022-10-18T02:23:48.643Z,100.00
2022-10-18T02:26:15.952Z,100.00
2022-10-18T02:28:43.071Z,100.00
2022-10-18T02:31:27.140Z,100.00
2022-10-18T02:34:06.910Z,100.00
2022-10-18T02:36:42.978Z,100.00
2022-10-18T02:39:16.563Z,100.00
2022-10-18T02:41:43.501Z,100.00
2022-10-18T02:44:11.149Z,100.00
2022-10-18T02:46:38.583Z,100.00
2022-10-18T02:49:04.991Z,100.00
2022-10-18T02:51:31.922Z,100.00
2022-10-18T02:53:58.296Z,100.00
2022-10-18T02:56:24.779Z,100.00
2022-10-18T02:58:51.072Z,100.00
2022-10-18T03:01:17.561Z,100.00
2022-10-18T03:03:44.180Z,100.00
2022-10-18T03:06:10.567Z,100.00
2022-10-18T03:08:36.954Z,100.00
2022-10-18T03:11:03.258Z,100.00
2022-10-18T03:15:56.005Z,100.00
2022-10-18T03:18:22.511Z,100.00
2022-10-18T03:20:48.868Z,100.00
2022-10-18T03:23:15.253Z,100.00
2022-10-18T03:25:44.248Z,100.00
2022-10-18T03:28:12.793Z,100.00
2022-10-18T03:30:39.182Z,100.00
2022-10-18T03:33:08.722Z,100.00
2022-10-18T03:35:35.092Z,100.00
2022-10-18T03:38:01.472Z,100.00
2022-10-18T03:40:27.970Z,100.00
2022-10-18T03:42:54.440Z,100.00
2022-10-18T03:45:20.818Z,100.00
2022-10-18T03:47:47.190Z,100.00
2022-10-18T03:50:13.627Z,100.00
2022-10-18T03:52:40.070Z,100.00
2022-10-18T03:55:06.731Z,100.00
2022-10-18T03:57:33.320Z,100.00
2022-10-18T03:59:59.600Z,100.00
2022-10-18T04:02:26.089Z,100.00
2022-10-18T04:04:52.789Z,100.00
2022-10-18T04:07:19.204Z,100.00
2022-10-18T04:09:45.595Z,100.00
2022-10-18T04:12:11.961Z,100.00
2022-10-18T04:14:38.345Z,100.00
2022-10-18T04:17:04.858Z,100.00
2022-10-18T04:19:31.213Z,100.00
2022-10-18T04:21:57.844Z,100.00
2022-10-18T04:24:24.312Z,100.00
2022-10-18T04:26:50.636Z,100.00
2022-10-18T04:29:19.502Z,100.00
2022-10-18T04:31:46.681Z,100.00
2022-10-18T04:34:13.169Z,100.00
2022-10-18T04:36:39.565Z,100.00
2022-10-18T04:39:07.970Z,100.00
2022-10-18T04:41:34.445Z,100.00
2022-10-18T04:44:00.841Z,100.00
2022-10-18T04:46:27.298Z,100.00
2022-10-18T04:48:53.660Z,100.00
2022-10-18T04:51:20.377Z,100.00
2022-10-18T04:53:46.773Z,100.00
2022-10-18T04:56:13.173Z,100.00
2022-10-18T04:58:39.657Z,100.00
2022-10-18T05:01:06.590Z,100.00
2022-10-18T05:03:33.628Z,100.00
2022-10-18T05:06:03.148Z,100.00
2022-10-18T05:08:30.866Z,100.00
2022-10-18T05:10:57.405Z,100.00
2022-10-18T05:13:23.911Z,100.00
2022-10-18T05:15:50.472Z,100.00
2022-10-18T05:18:16.818Z,100.00
2022-10-18T05:20:43.335Z,100.00
2022-10-18T05:23:12.589Z,100.00
2022-10-18T05:25:40.285Z,100.00
2022-10-18T05:28:10.774Z,100.00
2022-10-18T05:30:47.786Z,100.00
2022-10-18T05:33:14.113Z,100.00
2022-10-18T05:35:40.549Z,100.00
2022-10-18T05:38:07.045Z,100.00
2022-10-18T05:40:33.629Z,100.00
2022-10-18T05:43:00.045Z,100.00
2022-10-18T05:45:26.606Z,100.00
2022-10-18T05:47:52.958Z,100.00
2022-10-18T05:50:19.536Z,100.00
2022-10-18T05:52:45.924Z,100.00
2022-10-18T05:55:12.337Z,100.00
2022-10-18T05:57:38.749Z,100.00
2022-10-18T06:00:05.460Z,100.00
2022-10-18T06:02:38.378Z,100.00
2022-10-18T06:05:05.269Z,100.00
2022-10-18T06:07:31.977Z,100.00
2022-10-18T06:09:58.569Z,100.00
2022-10-18T06:12:25.119Z,100.00
2022-10-18T06:14:51.518Z,100.00
2022-10-18T06:17:17.916Z,100.00
2022-10-18T06:19:44.418Z,100.00
2022-10-18T06:22:11.164Z,100.00
2022-10-18T06:24:37.943Z,100.00
2022-10-18T06:27:08.746Z,100.00
2022-10-18T06:29:38.555Z,100.00
2022-10-18T06:32:06.440Z,100.00
2022-10-18T06:34:33.340Z,100.00
2022-10-18T06:37:00.153Z,100.00
2022-10-18T06:39:26.947Z,100.00
2022-10-18T06:41:53.633Z,100.00
2022-10-18T06:44:21.238Z,100.00
2022-10-18T06:46:48.817Z,100.00
2022-10-18T06:49:18.992Z,100.00
2022-10-18T06:51:46.158Z,100.00
2022-10-18T06:54:18.119Z,100.00
2022-10-18T06:56:45.721Z,100.00
2022-10-18T06:59:12.223Z,100.00
2022-10-18T07:01:38.683Z,100.00
2022-10-18T07:04:05.217Z,100.00
2022-10-18T07:06:31.544Z,97.92
2022-10-18T07:08:57.971Z,93.15
2022-10-18T07:11:25.385Z,88.98
2022-10-18T07:13:54.417Z,95.01
2022-10-18T07:16:21.162Z,88.08
2022-10-18T07:18:50.309Z,84.56
2022-10-18T07:21:19.350Z,80.73
2022-10-18T07:23:46.756Z,80.26
2022-10-18T07:26:19.385Z,79.28
2022-10-18T07:28:49.010Z,77.57
2022-10-18T07:31:16.009Z,78.37
2022-10-18T07:33:45.173Z,79.37
2022-10-18T07:36:12.649Z,75.52
2022-10-18T07:38:39.754Z,75.68
2022-10-18T07:41:07.602Z,74.67
2022-10-18T07:43:35.291Z,75.71
2022-10-18T07:46:04.478Z,75.67
2022-10-18T07:48:31.252Z,75.07
2022-10-18T07:51:00.491Z,75.08
2022-10-18T07:53:27.703Z,79.52
2022-10-18T07:56:01.343Z,80.62
2022-10-18T07:58:32.033Z,75.08
2022-10-18T08:01:03.262Z,75.84
2022-10-18T08:03:29.699Z,72.65
2022-10-18T08:05:56.488Z,74.53
2022-10-18T08:08:23.812Z,80.43
2022-10-18T08:10:50.584Z,78.39
2022-10-18T08:13:17.407Z,77.20
2022-10-18T08:15:44.325Z,76.31
2022-10-18T08:18:11.596Z,71.10
2022-10-18T08:20:43.289Z,69.32
2022-10-18T08:23:09.810Z,70.10
2022-10-18T08:28:07.788Z,71.96
2022-10-18T08:30:35.735Z,70.59
2022-10-18T08:33:03.158Z,69.68
2022-10-18T08:35:29.575Z,67.84
2022-10-18T08:37:56.004Z,69.16
2022-10-18T08:40:22.516Z,69.22
2022-10-18T08:43:03.858Z,72.90
2022-10-18T08:45:41.827Z,74.00
2022-10-18T08:48:19.237Z,76.30
2022-10-18T08:50:46.683Z,77.00
2022-10-18T08:53:25.177Z,74.66
2022-10-18T08:56:15.096Z,77.72
2022-10-18T08:58:44.943Z,79.05
2022-10-18T09:01:33.014Z,80.83
2022-10-18T09:04:24.569Z,79.84
2022-10-18T09:07:20.087Z,77.99
2022-10-18T09:10:00.992Z,81.67
2022-10-18T09:13:12.247Z,80.33
2022-10-18T09:16:03.834Z,72.11
2022-10-18T09:18:57.160Z,61.70
2022-10-18T09:21:36.881Z,65.83
2022-10-18T09:24:20.671Z,63.93
2022-10-18T09:26:51.721Z,63.52
2022-10-18T09:29:47.792Z,64.83
2022-10-18T09:32:23.329Z,65.39
2022-10-18T09:35:08.694Z,65.46
2022-10-18T09:37:35.232Z,65.69
2022-10-18T09:40:18.847Z,65.54
2022-10-18T09:43:16.045Z,64.87
2022-10-18T09:45:45.736Z,62.48
2022-10-18T09:48:36.590Z,59.76
2022-10-18T09:51:12.086Z,57.79
2022-10-18T09:54:04.323Z,56.92
2022-10-18T09:56:40.858Z,55.26
2022-10-18T09:59:32.376Z,56.38
2022-10-18T10:01:58.865Z,54.42
2022-10-18T10:04:25.303Z,53.96
2022-10-18T10:06:54.601Z,53.31
2022-10-18T10:09:36.069Z,54.31
2022-10-18T10:12:03.141Z,52.83
2022-10-18T10:14:30.686Z,53.01
2022-10-18T10:17:02.391Z,50.91
2022-10-18T10:20:02.065Z,52.79
2022-10-18T10:22:35.932Z,54.38
2022-10-18T10:25:02.961Z,54.65
2022-10-18T10:27:43.938Z,55.72
2022-10-18T10:30:34.962Z,55.02
2022-10-18T10:33:03.535Z,56.25
2022-10-18T10:35:54.459Z,57.14
2022-10-18T10:38:26.560Z,57.43
2022-10-18T10:40:54.052Z,56.38
2022-10-18T10:43:39.326Z,55.19
2022-10-18T10:46:09.931Z,54.25
2022-10-18T10:49:20.778Z,54.43
2022-10-18T10:51:43.806Z,53.15
2022-10-18T10:54:16.833Z,53.19
2022-10-18T10:57:05.076Z,53.42
2022-10-18T11:02:19.012Z,54.04
2022-10-18T11:04:47.366Z,52.37
2022-10-18T11:07:34.977Z,54.08
2022-10-18T11:10:07.497Z,53.19
2022-10-18T11:12:45.582Z,51.91
2022-10-18T11:15:25.565Z,52.92
2022-10-18T11:18:14.777Z,53.88
2022-10-18T11:21:01.957Z,52.46
2022-10-18T11:23:31.334Z,51.42
2022-10-18T11:26:09.535Z,51.37
2022-10-18T11:28:36.052Z,51.29
2022-10-18T11:31:33.378Z,51.93
2022-10-18T11:34:15.074Z,51.68
2022-10-18T11:37:29.963Z,52.27
2022-10-18T11:40:38.176Z,52.20
2022-10-18T11:43:19.652Z,54.14
2022-10-18T11:45:58.076Z,52.72
2022-10-18T11:48:45.856Z,52.08
2022-10-18T11:52:03.544Z,50.85
2022-10-18T11:54:52.144Z,51.74
2022-10-18T11:57:46.326Z,50.39
2022-10-18T12:00:25.259Z,50.44
2022-10-18T12:03:12.134Z,48.62
2022-10-18T12:05:40.989Z,47.80
2022-10-18T12:08:29.194Z,49.40
2022-10-18T12:11:06.394Z,48.59
2022-10-18T12:13:40.088Z,48.16
2022-10-18T12:16:09.197Z,46.83
2022-10-18T12:18:43.147Z,46.15
2022-10-18T12:21:12.636Z,46.39
2022-10-18T12:23:49.454Z,47.90
2022-10-18T12:26:17.272Z,51.89
2022-10-18T12:29:20.316Z,51.04
2022-10-18T12:31:52.807Z,48.54
2022-10-18T12:34:22.173Z,47.71
2022-10-18T12:37:00.817Z,46.00
2022-10-18T12:39:43.358Z,45.28
2022-10-18T12:42:22.915Z,43.90
2022-10-18T12:44:59.930Z,43.10
2022-10-18T12:47:28.684Z,44.08
2022-10-18T12:49:58.793Z,45.70
2022-10-18T12:52:28.808Z,45.20
2022-10-18T12:55:04.076Z,45.37
2022-10-18T12:57:51.989Z,43.87
2022-10-18T13:00:30.462Z,47.51
2022-10-18T13:03:18.108Z,48.27
2022-10-18T13:05:56.077Z,46.29
2022-10-18T13:08:29.996Z,45.43
2022-10-18T13:11:08.805Z,45.06
2022-10-18T13:13:40.673Z,43.88
2022-10-18T13:16:14.873Z,44.11
2022-10-18T13:19:10.268Z,45.50
2022-10-18T13:22:10.216Z,44.17
2022-10-18T13:24:46.967Z,42.94
2022-10-18T13:27:35.471Z,43.17
2022-10-18T13:30:28.125Z,44.25
2022-10-18T13:33:00.560Z,44.45
2022-10-18T13:35:55.329Z,45.06
2022-10-18T13:38:43.089Z,42.79
2022-10-18T13:41:20.129Z,41.74
2022-10-18T13:43:53.055Z,41.76
2022-10-18T13:46:20.889Z,41.07
2022-10-18T13:48:49.557Z,44.70
2022-10-18T13:51:18.981Z,45.53
2022-10-18T13:53:54.432Z,45.36
2022-10-18T13:56:28.370Z,46.74
2022-10-18T13:59:19.774Z,46.66
2022-10-18T14:02:50.333Z,44.79
2022-10-18T14:05:49.544Z,46.13
2022-10-18T14:08:21.993Z,47.55
2022-10-18T14:11:14.744Z,45.84
2022-10-18T14:13:52.187Z,44.83
2022-10-18T14:16:37.093Z,44.54
2022-10-18T14:19:25.141Z,45.88
2022-10-18T14:22:03.375Z,43.32
2022-10-18T14:24:31.019Z,44.04
2022-10-18T14:27:34.035Z,48.04
2022-10-18T14:30:15.180Z,48.71
2022-10-18T14:32:48.182Z,48.95
2022-10-18T14:35:32.024Z,46.21
2022-10-18T14:37:59.569Z,44.80
2022-10-18T14:40:31.429Z,49.24
2022-10-18T14:43:14.881Z,49.27
2022-10-18T14:45:42.802Z,49.47
2022-10-18T14:48:20.530Z,51.58
2022-10-18T14:50:59.067Z,51.93
2022-10-18T14:53:30.750Z,52.86
2022-10-18T14:56:00.836Z,54.81
2022-10-18T14:58:27.776Z,54.97
2022-10-18T15:00:54.635Z,54.77
2022-10-18T15:03:21.876Z,55.81
2022-10-18T15:05:56.798Z,57.73
2022-10-18T15:08:26.704Z,56.91
2022-10-18T15:10:53.277Z,57.17
2022-10-18T15:13:19.922Z,58.25
2022-10-18T15:15:46.843Z,59.33
2022-10-18T15:18:24.912Z,61.21
2022-10-18T15:21:08.077Z,63.04
2022-10-18T15:23:34.834Z,63.85
2022-10-18T15:26:05.979Z,64.41
2022-10-18T15:28:36.186Z,63.62
2022-10-18T15:31:03.712Z,63.32
2022-10-18T15:33:34.396Z,64.15
2022-10-18T15:36:12.505Z,66.24
2022-10-18T15:38:39.283Z,66.25
2022-10-18T15:41:41.374Z,68.04
2022-10-18T15:44:31.804Z,70.08
2022-10-18T15:47:21.165Z,70.88
2022-10-18T15:49:51.188Z,72.39
2022-10-18T15:52:38.621Z,74.58
2022-10-18T15:55:30.257Z,75.99
2022-10-18T15:58:12.657Z,76.56
2022-10-18T16:00:39.151Z,76.67
2022-10-18T16:03:08.480Z,77.87
2022-10-18T16:05:39.088Z,77.12
2022-10-18T16:08:05.613Z,77.09
2022-10-18T16:10:32.111Z,78.44
2022-10-18T16:12:58.703Z,81.09
2022-10-18T16:15:25.127Z,81.53
2022-10-18T16:17:51.995Z,84.50
2022-10-18T16:20:24.453Z,83.62
2022-10-18T16:22:50.907Z,85.40
2022-10-18T16:25:17.355Z,86.96
2022-10-18T16:27:43.878Z,88.02
2022-10-18T16:30:18.045Z,88.60
2022-10-18T16:32:53.433Z,88.64
2022-10-18T16:35:19.819Z,89.23
2022-10-18T16:37:46.192Z,88.94
2022-10-18T16:40:22.266Z,87.71
2022-10-18T16:42:49.018Z,88.16
2022-10-18T16:45:15.815Z,88.97
2022-10-18T16:47:42.257Z,88.35
2022-10-18T16:52:59.563Z,86.48
2022-10-18T16:55:26.372Z,87.39
2022-10-18T16:57:53.170Z,88.02
2022-10-18T17:00:22.807Z,88.13
2022-10-18T17:02:49.973Z,89.48
2022-10-18T17:05:17.900Z,91.11
2022-10-18T17:07:45.610Z,92.37
2022-10-18T17:10:18.067Z,93.86
2022-10-18T17:12:44.641Z,93.89
2022-10-18T17:15:11.924Z,93.58
2022-10-18T17:17:38.871Z,94.81
2022-10-18T17:20:07.252Z,93.08
2022-10-18T17:22:34.307Z,94.29
2022-10-18T17:25:00.726Z,93.54
2022-10-18T17:27:27.158Z,93.27
2022-10-18T17:29:53.575Z,93.76
2022-10-18T17:32:19.942Z,93.67
2022-10-18T17:34:46.417Z,92.44
2022-10-18T17:37:13.597Z,93.82
2022-10-18T17:39:40.187Z,94.71
2022-10-18T17:42:07.207Z,94.56
2022-10-18T17:44:33.976Z,95.50
2022-10-18T17:47:00.499Z,96.11
2022-10-18T17:49:27.028Z,96.61
2022-10-18T17:51:53.542Z,96.14
2022-10-18T17:54:19.946Z,96.10
2022-10-18T17:56:48.135Z,95.90
2022-10-18T17:59:16.363Z,96.43
2022-10-18T18:01:42.842Z,96.99
2022-10-18T18:04:09.546Z,96.58
2022-10-18T18:06:38.936Z,96.46
2022-10-18T18:09:15.943Z,96.96
2022-10-18T18:11:48.141Z,97.45
2022-10-18T18:14:15.992Z,98.40
2022-10-18T18:16:44.604Z,99.25
2022-10-18T18:19:12.599Z,99.92
2022-10-18T18:21:40.652Z,99.76
2022-10-18T18:24:07.698Z,100.00
2022-10-18T18:26:35.933Z,99.73
2022-10-18T18:31:38.854Z,99.51
2022-10-18T18:34:09.513Z,100.00
2022-10-18T18:36:36.296Z,100.00
2022-10-18T18:39:05.627Z,100.00
2022-10-18T18:41:32.506Z,100.00
2022-10-18T18:44:01.332Z,100.00
2022-10-18T18:46:29.976Z,100.00
2022-10-18T18:48:57.807Z,100.00
2022-10-18T18:51:24.899Z,100.00
2022-10-18T18:53:52.453Z,100.00
2022-10-18T18:56:23.446Z,100.00
2022-10-18T18:58:50.448Z,100.00
2022-10-18T19:01:26.062Z,100.00
2022-10-18T19:03:54.745Z,100.00
2022-10-18T19:06:22.450Z,100.00
2022-10-18T19:08:49.542Z,100.00
2022-10-18T19:11:18.736Z,100.00
2022-10-18T19:13:45.699Z,100.00
2022-10-18T19:16:20.494Z,100.00
2022-10-18T19:19:00.923Z,100.00
2022-10-18T19:21:30.780Z,100.00
2022-10-18T19:23:58.464Z,100.00
2022-10-18T19:26:44.398Z,100.00
2022-10-18T19:29:23.209Z,100.00
2022-10-18T19:31:55.198Z,100.00
2022-10-18T19:34:23.135Z,100.00
2022-10-18T19:36:50.575Z,100.00
2022-10-18T19:39:18.492Z,100.00
2022-10-18T19:41:50.565Z,100.00
2022-10-18T19:44:20.335Z,100.00
2022-10-18T19:46:47.807Z,100.00
2022-10-18T19:49:15.055Z,100.00
2022-10-18T19:51:41.849Z,100.00
2022-10-18T19:54:08.353Z,100.00
2022-10-18T19:56:34.703Z,100.00
2022-10-18T19:59:01.334Z,100.00
2022-10-18T20:01:28.742Z,100.00
2022-10-18T20:03:55.853Z,100.00
2022-10-18T20:06:22.712Z,100.00
2022-10-18T20:08:49.882Z,100.00
2022-10-18T20:11:18.998Z,100.00
2022-10-18T20:13:46.180Z,100.00
2022-10-18T20:16:14.629Z,100.00
2022-10-18T20:18:44.650Z,100.00
2022-10-18T20:21:13.781Z,100.00
2022-10-18T20:23:41.621Z,100.00
2022-10-18T20:26:15.544Z,100.00
2022-10-18T20:28:57.324Z,100.00
2022-10-18T20:31:27.801Z,100.00
2022-10-18T20:33:56.884Z,100.00
2022-10-18T20:36:23.474Z,100.00
2022-10-18T20:38:49.961Z,100.00
2022-10-18T20:41:20.592Z,100.00
2022-10-18T20:44:01.862Z,100.00
2022-10-18T20:46:33.995Z,100.00
2022-10-18T20:49:01.170Z,100.00
2022-10-18T20:51:27.905Z,100.00
2022-10-18T20:53:54.520Z,100.00
2022-10-18T20:56:24.066Z,100.00
2022-10-18T20:58:53.190Z,100.00
2022-10-18T21:01:25.099Z,100.00
2022-10-18T21:03:53.281Z,100.00
2022-10-18T21:06:28.533Z,100.00
2022-10-18T21:09:04.704Z,100.00
2022-10-18T21:11:34.512Z,100.00
2022-10-18T21:14:05.331Z,100.00
2022-10-18T21:16:33.760Z,100.00
2022-10-18T21:19:13.072Z,100.00
2022-10-18T21:21:43.925Z,100.00
2022-10-18T21:24:11.191Z,100.00
2022-10-18T21:26:37.799Z,100.00
2022-10-18T21:29:04.981Z,100.00
2022-10-18T21:31:36.957Z,100.00
2022-10-18T21:34:05.998Z,100.00
2022-10-18T21:36:35.547Z,100.00
2022-10-18T21:39:03.942Z,100.00
2022-10-18T21:41:31.015Z,100.00
2022-10-18T21:43:57.501Z,100.00
2022-10-18T21:46:24.448Z,100.00
2022-10-18T21:48:53.475Z,100.00
2022-10-18T21:51:21.937Z,100.00
2022-10-18T21:53:51.199Z,100.00
2022-10-18T21:56:20.573Z,100.00
2022-10-18T21:58:47.320Z,100.00
2022-10-18T22:01:17.750Z,100.00
2022-10-18T22:03:47.356Z,100.00
2022-10-18T22:06:14.894Z,100.00
2022-10-18T22:08:47.295Z,100.00
2022-10-18T22:11:14.281Z,100.00
2022-10-18T22:13:41.623Z,100.00
2022-10-18T22:16:11.057Z,100.00
2022-10-18T22:18:37.476Z,100.00
2022-10-18T22:21:06.657Z,100.00
2022-10-18T22:23:52.814Z,100.00
2022-10-18T22:26:22.769Z,100.00
2022-10-18T22:28:58.653Z,100.00
2022-10-18T22:31:27.745Z,100.00
2022-10-18T22:33:56.572Z,100.00
2022-10-18T22:36:24.164Z,100.00
2022-10-18T22:38:50.739Z,100.00
2022-10-18T22:41:17.299Z,100.00
2022-10-18T22:43:43.791Z,100.00
2022-10-18T22:46:11.497Z,100.00
2022-10-18T22:48:37.863Z,100.00
2022-10-18T22:51:05.348Z,100.00
2022-10-18T22:53:32.780Z,100.00
2022-10-18T22:55:59.429Z,100.00
2022-10-18T22:58:25.976Z,100.00
2022-10-18T23:00:59.166Z,100.00
2022-10-18T23:03:25.563Z,100.00
2022-10-18T23:05:51.956Z,100.00
2022-10-18T23:08:18.283Z,100.00
2022-10-18T23:10:44.863Z,100.00
2022-10-18T23:13:11.182Z,100.00
2022-10-18T23:15:40.472Z,100.00
2022-10-18T23:18:06.934Z,100.00
2022-10-18T23:20:33.395Z,100.00
2022-10-18T23:22:59.788Z,100.00
2022-10-18T23:25:27.170Z,100.00
2022-10-18T23:27:53.742Z,100.00
2022-10-18T23:30:20.167Z,100.00
2022-10-18T23:32:46.677Z,100.00
2022-10-18T23:35:12.972Z,100.00
2022-10-18T23:37:39.364Z,100.00
2022-10-18T23:40:06.380Z,100.00
2022-10-18T23:42:32.783Z,100.00
2022-10-18T23:44:59.144Z,100.00
2022-10-18T23:47:25.857Z,100.00
2022-10-18T23:49:53.160Z,100.00
2022-10-18T23:52:19.543Z,100.00
2022-10-18T23:54:46.130Z,100.00
2022-10-18T23:57:12.692Z,100.00
2022-10-18T23:59:38.971Z,100.00
